sensor_id;sensor_type;location;lat;lon;timestamp;noise_LAeq;noise_LA_min;noise_LA_max;noise_LA01;noise_LA95
74234;Laerm;62591;55.764;37.718;2024-03-23T00:52:23;41.85;36.97;49.08;;
74234;Laerm;62591;55.764;37.718;2024-03-23T00:54:50;41.05;36.77;47.96;;
74234;Laerm;62591;55.764;37.718;2024-03-23T00:57:18;40.36;36.80;46.60;;
74234;Laerm;62591;55.764;37.718;2024-03-23T00:59:44;40.69;37.32;47.86;;
74234;Laerm;62591;55.764;37.718;2024-03-23T01:02:12;40.08;37.25;43.51;;
74234;Laerm;62591;55.764;37.718;2024-03-23T01:04:39;41.16;37.60;48.97;;
74234;Laerm;62591;55.764;37.718;2024-03-23T01:07:07;40.93;37.46;47.17;;
74234;Laerm;62591;55.764;37.718;2024-03-23T01:09:35;40.86;37.82;47.42;;
74234;Laerm;62591;55.764;37.718;2024-03-23T01:12:05;43.03;38.42;50.74;;
74234;Laerm;62591;55.764;37.718;2024-03-23T01:14:32;42.69;38.94;57.42;;
74234;Laerm;62591;55.764;37.718;2024-03-23T01:17:00;41.77;38.71;59.08;;
74234;Laerm;62591;55.764;37.718;2024-03-23T01:19:26;45.75;39.37;61.26;;
74234;Laerm;62591;55.764;37.718;2024-03-23T01:21:54;41.88;38.45;61.66;;
74234;Laerm;62591;55.764;37.718;2024-03-23T01:24:21;41.60;38.61;61.12;;
74234;Laerm;62591;55.764;37.718;2024-03-23T01:26:50;44.20;38.44;60.54;;
74234;Laerm;62591;55.764;37.718;2024-03-23T01:29:17;42.11;38.13;55.05;;
74234;Laerm;62591;55.764;37.718;2024-03-23T01:31:45;41.38;38.17;52.79;;
74234;Laerm;62591;55.764;37.718;2024-03-23T01:34:12;41.75;38.03;56.53;;
74234;Laerm;62591;55.764;37.718;2024-03-23T01:36:39;41.86;38.56;58.08;;
74234;Laerm;62591;55.764;37.718;2024-03-23T01:39:07;42.53;39.22;52.95;;
74234;Laerm;62591;55.764;37.718;2024-03-23T01:41:35;45.97;39.04;56.93;;
74234;Laerm;62591;55.764;37.718;2024-03-23T01:44:06;41.87;38.33;56.47;;
74234;Laerm;62591;55.764;37.718;2024-03-23T01:46:37;42.70;38.93;58.11;;
74234;Laerm;62591;55.764;37.718;2024-03-23T01:49:05;46.65;39.08;56.58;;
74234;Laerm;62591;55.764;37.718;2024-03-23T01:51:32;43.03;38.24;56.82;;
74234;Laerm;62591;55.764;37.718;2024-03-23T01:54:03;41.58;37.94;52.83;;
74234;Laerm;62591;55.764;37.718;2024-03-23T01:56:30;44.48;38.38;61.77;;
74234;Laerm;62591;55.764;37.718;2024-03-23T01:58:59;48.70;38.09;67.43;;
74234;Laerm;62591;55.764;37.718;2024-03-23T02:01:28;42.66;38.25;57.59;;
74234;Laerm;62591;55.764;37.718;2024-03-23T02:03:56;44.22;38.06;55.97;;
74234;Laerm;62591;55.764;37.718;2024-03-23T02:06:24;45.04;38.09;56.60;;
74234;Laerm;62591;55.764;37.718;2024-03-23T02:08:53;41.48;37.73;54.00;;
74234;Laerm;62591;55.764;37.718;2024-03-23T02:11:19;43.24;37.56;59.33;;
74234;Laerm;62591;55.764;37.718;2024-03-23T02:13:47;41.39;36.86;54.73;;
74234;Laerm;62591;55.764;37.718;2024-03-23T02:16:14;41.10;37.69;57.08;;
74234;Laerm;62591;55.764;37.718;2024-03-23T02:18:47;45.36;38.57;59.08;;
74234;Laerm;62591;55.764;37.718;2024-03-23T02:21:16;44.60;39.10;56.52;;
74234;Laerm;62591;55.764;37.718;2024-03-23T02:23:45;44.93;39.51;56.39;;
74234;Laerm;62591;55.764;37.718;2024-03-23T02:26:13;43.73;38.78;56.37;;
74234;Laerm;62591;55.764;37.718;2024-03-23T02:28:41;45.74;39.09;58.63;;
74234;Laerm;62591;55.764;37.718;2024-03-23T02:31:08;43.08;39.08;57.88;;
74234;Laerm;62591;55.764;37.718;2024-03-23T02:33:35;44.78;39.05;53.84;;
74234;Laerm;62591;55.764;37.718;2024-03-23T02:36:04;49.94;39.19;65.57;;
74234;Laerm;62591;55.764;37.718;2024-03-23T02:38:32;48.71;39.00;67.70;;
74234;Laerm;62591;55.764;37.718;2024-03-23T02:41:04;44.72;38.75;56.18;;
74234;Laerm;62591;55.764;37.718;2024-03-23T02:43:32;46.20;38.91;56.33;;
74234;Laerm;62591;55.764;37.718;2024-03-23T02:45:59;45.58;39.60;54.77;;
74234;Laerm;62591;55.764;37.718;2024-03-23T02:48:27;43.98;38.50;56.01;;
74234;Laerm;62591;55.764;37.718;2024-03-23T02:50:54;45.18;39.48;54.28;;
74234;Laerm;62591;55.764;37.718;2024-03-23T02:53:22;47.25;39.49;57.10;;
74234;Laerm;62591;55.764;37.718;2024-03-23T02:55:48;47.19;39.00;58.25;;
74234;Laerm;62591;55.764;37.718;2024-03-23T02:58:18;44.62;39.57;51.85;;
74234;Laerm;62591;55.764;37.718;2024-03-23T03:00:45;45.52;40.08;53.06;;
74234;Laerm;62591;55.764;37.718;2024-03-23T03:03:13;47.82;40.53;67.38;;
74234;Laerm;62591;55.764;37.718;2024-03-23T03:05:39;44.99;40.38;57.73;;
74234;Laerm;62591;55.764;37.718;2024-03-23T03:08:07;46.49;40.14;55.42;;
74234;Laerm;62591;55.764;37.718;2024-03-23T03:10:34;45.12;40.11;56.82;;
74234;Laerm;62591;55.764;37.718;2024-03-23T03:13:02;46.46;40.73;55.08;;
74234;Laerm;62591;55.764;37.718;2024-03-23T03:15:31;48.44;40.27;63.42;;
74234;Laerm;62591;55.764;37.718;2024-03-23T03:18:00;47.18;41.13;59.20;;
74234;Laerm;62591;55.764;37.718;2024-03-23T03:20:27;46.38;40.25;54.63;;
74234;Laerm;62591;55.764;37.718;2024-03-23T03:22:55;44.85;40.72;56.08;;
74234;Laerm;62591;55.764;37.718;2024-03-23T03:25:22;46.64;40.76;60.11;;
74234;Laerm;62591;55.764;37.718;2024-03-23T03:27:51;45.62;40.28;56.83;;
74234;Laerm;62591;55.764;37.718;2024-03-23T03:30:18;48.00;41.08;57.45;;
74234;Laerm;62591;55.764;37.718;2024-03-23T03:32:48;45.44;40.79;59.08;;
74234;Laerm;62591;55.764;37.718;2024-03-23T03:35:15;45.61;41.33;56.15;;
74234;Laerm;62591;55.764;37.718;2024-03-23T03:37:43;48.53;41.44;59.21;;
74234;Laerm;62591;55.764;37.718;2024-03-23T03:40:11;48.44;41.95;59.55;;
74234;Laerm;62591;55.764;37.718;2024-03-23T03:42:41;51.25;41.04;60.06;;
74234;Laerm;62591;55.764;37.718;2024-03-23T03:45:08;46.62;40.90;61.29;;
74234;Laerm;62591;55.764;37.718;2024-03-23T03:47:35;47.38;41.21;56.43;;
74234;Laerm;62591;55.764;37.718;2024-03-23T03:50:04;46.21;41.90;59.84;;
74234;Laerm;62591;55.764;37.718;2024-03-23T03:52:33;47.67;41.56;61.91;;
74234;Laerm;62591;55.764;37.718;2024-03-23T03:55:02;47.62;41.98;58.99;;
74234;Laerm;62591;55.764;37.718;2024-03-23T03:57:30;49.14;42.03;60.44;;
74234;Laerm;62591;55.764;37.718;2024-03-23T03:59:57;48.71;42.10;58.80;;
74234;Laerm;62591;55.764;37.718;2024-03-23T04:02:25;48.76;42.46;61.58;;
74234;Laerm;62591;55.764;37.718;2024-03-23T04:04:52;46.92;41.73;59.88;;
74234;Laerm;62591;55.764;37.718;2024-03-23T04:07:21;46.49;41.96;57.16;;
74234;Laerm;62591;55.764;37.718;2024-03-23T04:09:49;47.94;41.99;66.53;;
74234;Laerm;62591;55.764;37.718;2024-03-23T04:12:17;48.38;42.91;60.50;;
74234;Laerm;62591;55.764;37.718;2024-03-23T04:14:43;46.89;41.48;56.62;;
74234;Laerm;62591;55.764;37.718;2024-03-23T04:17:11;50.65;42.06;60.08;;
74234;Laerm;62591;55.764;37.718;2024-03-23T04:19:38;50.70;42.00;62.08;;
74234;Laerm;62591;55.764;37.718;2024-03-23T04:22:07;48.50;43.06;57.76;;
74234;Laerm;62591;55.764;37.718;2024-03-23T04:24:36;47.17;42.36;56.58;;
74234;Laerm;62591;55.764;37.718;2024-03-23T04:27:04;47.83;43.34;55.29;;
74234;Laerm;62591;55.764;37.718;2024-03-23T04:29:31;50.17;42.70;62.81;;
74234;Laerm;62591;55.764;37.718;2024-03-23T04:31:59;51.13;42.65;59.38;;
74234;Laerm;62591;55.764;37.718;2024-03-23T04:34:27;46.66;42.07;54.83;;
74234;Laerm;62591;55.764;37.718;2024-03-23T04:36:55;47.55;42.36;59.61;;
74234;Laerm;62591;55.764;37.718;2024-03-23T04:39:21;48.69;42.88;59.22;;
74234;Laerm;62591;55.764;37.718;2024-03-23T04:41:51;47.70;42.59;57.13;;
74234;Laerm;62591;55.764;37.718;2024-03-23T04:44:18;49.67;42.66;58.16;;
74234;Laerm;62591;55.764;37.718;2024-03-23T04:46:46;47.93;43.10;58.38;;
74234;Laerm;62591;55.764;37.718;2024-03-23T04:49:14;49.17;43.04;58.36;;
74234;Laerm;62591;55.764;37.718;2024-03-23T04:51:42;49.29;42.46;65.87;;
74234;Laerm;62591;55.764;37.718;2024-03-23T04:54:12;49.43;42.19;60.19;;
74234;Laerm;62591;55.764;37.718;2024-03-23T04:56:39;46.63;41.93;59.98;;
74234;Laerm;62591;55.764;37.718;2024-03-23T04:59:09;47.63;42.97;57.01;;
74234;Laerm;62591;55.764;37.718;2024-03-23T05:01:36;50.47;43.09;61.70;;
74234;Laerm;62591;55.764;37.718;2024-03-23T05:04:09;51.19;44.72;58.44;;
74234;Laerm;62591;55.764;37.718;2024-03-23T05:06:36;49.48;44.21;57.36;;
74234;Laerm;62591;55.764;37.718;2024-03-23T05:09:05;49.92;43.27;66.82;;
74234;Laerm;62591;55.764;37.718;2024-03-23T05:11:33;48.26;43.62;56.88;;
74234;Laerm;62591;55.764;37.718;2024-03-23T05:14:00;49.29;43.21;58.38;;
74234;Laerm;62591;55.764;37.718;2024-03-23T05:16:31;47.37;42.71;57.31;;
74234;Laerm;62591;55.764;37.718;2024-03-23T05:18:58;48.36;43.99;62.15;;
74234;Laerm;62591;55.764;37.718;2024-03-23T05:21:26;48.12;43.61;59.41;;
74234;Laerm;62591;55.764;37.718;2024-03-23T05:23:54;49.16;44.53;59.73;;
74234;Laerm;62591;55.764;37.718;2024-03-23T05:26:22;48.38;44.64;55.68;;
74234;Laerm;62591;55.764;37.718;2024-03-23T05:29:07;48.85;43.54;61.24;;
74234;Laerm;62591;55.764;37.718;2024-03-23T05:31:41;48.96;44.60;58.67;;
74234;Laerm;62591;55.764;37.718;2024-03-23T05:34:09;49.31;44.38;58.78;;
74234;Laerm;62591;55.764;37.718;2024-03-23T05:36:54;49.60;44.42;70.04;;
74234;Laerm;62591;55.764;37.718;2024-03-23T05:39:22;49.99;44.75;58.08;;
74234;Laerm;62591;55.764;37.718;2024-03-23T05:41:51;49.10;44.38;58.97;;
74234;Laerm;62591;55.764;37.718;2024-03-23T05:44:18;48.74;44.22;59.05;;
74234;Laerm;62591;55.764;37.718;2024-03-23T05:46:47;49.92;44.51;57.68;;
74234;Laerm;62591;55.764;37.718;2024-03-23T05:49:16;50.12;44.71;59.64;;
74234;Laerm;62591;55.764;37.718;2024-03-23T05:51:43;49.84;44.89;61.70;;
74234;Laerm;62591;55.764;37.718;2024-03-23T05:54:12;51.18;44.95;59.93;;
74234;Laerm;62591;55.764;37.718;2024-03-23T05:56:39;50.73;45.57;58.19;;
74234;Laerm;62591;55.764;37.718;2024-03-23T05:59:08;50.02;44.60;64.81;;
74234;Laerm;62591;55.764;37.718;2024-03-23T06:01:35;49.75;45.21;59.79;;
74234;Laerm;62591;55.764;37.718;2024-03-23T06:04:07;49.75;45.11;64.08;;
74234;Laerm;62591;55.764;37.718;2024-03-23T06:06:33;50.61;45.37;59.29;;
74234;Laerm;62591;55.764;37.718;2024-03-23T06:09:01;50.16;45.35;59.84;;
74234;Laerm;62591;55.764;37.718;2024-03-23T06:11:27;51.15;47.10;61.31;;
74234;Laerm;62591;55.764;37.718;2024-03-23T06:13:56;51.21;44.85;64.06;;
74234;Laerm;62591;55.764;37.718;2024-03-23T06:16:22;50.47;45.45;61.80;;
74234;Laerm;62591;55.764;37.718;2024-03-23T06:18:50;52.00;45.14;59.84;;
74234;Laerm;62591;55.764;37.718;2024-03-23T06:21:19;50.46;44.66;58.67;;
74234;Laerm;62591;55.764;37.718;2024-03-23T06:23:46;53.22;46.82;60.03;;
74234;Laerm;62591;55.764;37.718;2024-03-23T06:29:05;52.62;48.05;64.83;;
74234;Laerm;62591;55.764;37.718;2024-03-23T06:31:31;52.56;47.63;64.77;;
74234;Laerm;62591;55.764;37.718;2024-03-23T06:33:59;51.36;46.82;60.98;;
74234;Laerm;62591;55.764;37.718;2024-03-23T06:36:29;51.62;46.63;62.85;;
74234;Laerm;62591;55.764;37.718;2024-03-23T06:38:58;52.03;46.35;61.31;;
74234;Laerm;62591;55.764;37.718;2024-03-23T06:41:24;50.91;45.54;60.84;;
74234;Laerm;62591;55.764;37.718;2024-03-23T06:43:54;51.64;45.92;69.08;;
74234;Laerm;62591;55.764;37.718;2024-03-23T06:46:21;51.18;45.53;64.18;;
74234;Laerm;62591;55.764;37.718;2024-03-23T06:48:48;53.55;46.02;65.89;;
74234;Laerm;62591;55.764;37.718;2024-03-23T06:51:15;52.58;46.86;65.66;;
74234;Laerm;62591;55.764;37.718;2024-03-23T06:53:45;51.75;45.93;65.32;;
74234;Laerm;62591;55.764;37.718;2024-03-23T06:56:11;51.68;47.10;61.56;;
74234;Laerm;62591;55.764;37.718;2024-03-23T06:58:41;51.63;47.00;65.09;;
74234;Laerm;62591;55.764;37.718;2024-03-23T07:01:08;51.69;46.05;61.82;;
74234;Laerm;62591;55.764;37.718;2024-03-23T07:03:36;52.44;46.32;62.32;;
74234;Laerm;62591;55.764;37.718;2024-03-23T07:06:03;50.60;45.76;62.19;;
74234;Laerm;62591;55.764;37.718;2024-03-23T07:08:31;51.57;46.89;63.09;;
74234;Laerm;62591;55.764;37.718;2024-03-23T07:10:59;53.52;46.01;63.52;;
74234;Laerm;62591;55.764;37.718;2024-03-23T07:13:29;50.59;46.00;60.21;;
74234;Laerm;62591;55.764;37.718;2024-03-23T07:15:56;50.98;45.83;67.27;;
74234;Laerm;62591;55.764;37.718;2024-03-23T07:18:26;51.54;47.05;63.06;;
74234;Laerm;62591;55.764;37.718;2024-03-23T07:20:53;52.42;46.51;64.51;;
74234;Laerm;62591;55.764;37.718;2024-03-23T07:23:20;52.35;46.91;61.74;;
74234;Laerm;62591;55.764;37.718;2024-03-23T07:25:56;52.15;46.25;62.38;;
74234;Laerm;62591;55.764;37.718;2024-03-23T07:28:25;52.54;47.64;62.32;;
74234;Laerm;62591;55.764;37.718;2024-03-23T07:31:04;52.15;46.48;64.22;;
74234;Laerm;62591;55.764;37.718;2024-03-23T07:33:32;51.50;46.25;62.54;;
74234;Laerm;62591;55.764;37.718;2024-03-23T07:35:59;50.46;45.74;61.28;;
74234;Laerm;62591;55.764;37.718;2024-03-23T07:38:27;54.73;47.13;65.83;;
74234;Laerm;62591;55.764;37.718;2024-03-23T07:41:03;51.52;45.57;66.65;;
74234;Laerm;62591;55.764;37.718;2024-03-23T07:43:32;53.30;46.90;64.91;;
74234;Laerm;62591;55.764;37.718;2024-03-23T07:45:59;53.11;47.95;64.78;;
74234;Laerm;62591;55.764;37.718;2024-03-23T07:48:28;52.81;48.60;66.82;;
74234;Laerm;62591;55.764;37.718;2024-03-23T07:50:59;51.89;47.94;59.75;;
74234;Laerm;62591;55.764;37.718;2024-03-23T07:53:27;55.58;48.04;67.61;;
74234;Laerm;62591;55.764;37.718;2024-03-23T07:55:57;54.21;48.63;62.33;;
74234;Laerm;62591;55.764;37.718;2024-03-23T07:58:26;53.54;47.29;66.27;;
74234;Laerm;62591;55.764;37.718;2024-03-23T08:00:54;52.24;46.90;64.17;;
74234;Laerm;62591;55.764;37.718;2024-03-23T08:03:23;51.44;46.76;60.53;;
74234;Laerm;62591;55.764;37.718;2024-03-23T08:05:49;53.44;47.14;63.26;;
74234;Laerm;62591;55.764;37.718;2024-03-23T08:08:17;52.49;46.72;62.15;;
74234;Laerm;62591;55.764;37.718;2024-03-23T08:10:49;51.57;46.53;65.11;;
74234;Laerm;62591;55.764;37.718;2024-03-23T08:13:17;51.14;45.70;58.39;;
74234;Laerm;62591;55.764;37.718;2024-03-23T08:15:44;51.39;46.82;63.48;;
74234;Laerm;62591;55.764;37.718;2024-03-23T08:18:17;52.46;46.35;63.17;;
74234;Laerm;62591;55.764;37.718;2024-03-23T08:20:45;51.45;46.99;61.03;;
74234;Laerm;62591;55.764;37.718;2024-03-23T08:23:18;51.79;45.94;62.09;;
74234;Laerm;62591;55.764;37.718;2024-03-23T08:25:48;51.26;46.11;63.14;;
74234;Laerm;62591;55.764;37.718;2024-03-23T08:28:16;51.73;47.14;60.07;;
74234;Laerm;62591;55.764;37.718;2024-03-23T08:30:43;50.87;45.33;60.87;;
74234;Laerm;62591;55.764;37.718;2024-03-23T08:33:11;55.53;46.00;68.33;;
74234;Laerm;62591;55.764;37.718;2024-03-23T08:35:39;51.20;44.81;66.70;;
74234;Laerm;62591;55.764;37.718;2024-03-23T08:40:59;52.67;47.91;61.14;;
74234;Laerm;62591;55.764;37.718;2024-03-23T08:43:31;51.39;46.17;58.38;;
74234;Laerm;62591;55.764;37.718;2024-03-23T08:46:05;52.63;46.36;61.00;;
74234;Laerm;62591;55.764;37.718;2024-03-23T08:48:35;50.94;45.88;59.29;;
74234;Laerm;62591;55.764;37.718;2024-03-23T08:51:04;51.45;45.54;58.88;;
74234;Laerm;62591;55.764;37.718;2024-03-23T08:53:34;51.47;46.84;58.13;;
74234;Laerm;62591;55.764;37.718;2024-03-23T08:56:02;52.06;46.17;60.53;;
74234;Laerm;62591;55.764;37.718;2024-03-23T08:58:31;52.15;46.33;64.53;;
74234;Laerm;62591;55.764;37.718;2024-03-23T09:01:03;52.38;45.64;60.37;;
74234;Laerm;62591;55.764;37.718;2024-03-23T09:03:32;51.08;46.28;60.30;;
74234;Laerm;62591;55.764;37.718;2024-03-23T09:06:02;51.04;45.51;64.38;;
74234;Laerm;62591;55.764;37.718;2024-03-23T09:08:43;51.24;45.89;59.00;;
74234;Laerm;62591;55.764;37.718;2024-03-23T09:11:12;52.80;45.68;65.99;;
74234;Laerm;62591;55.764;37.718;2024-03-23T09:13:41;52.79;47.12;67.66;;
74234;Laerm;62591;55.764;37.718;2024-03-23T09:16:17;51.83;47.08;65.56;;
74234;Laerm;62591;55.764;37.718;2024-03-23T09:18:46;51.39;45.70;65.44;;
74234;Laerm;62591;55.764;37.718;2024-03-23T09:21:15;50.43;45.49;60.02;;
74234;Laerm;62591;55.764;37.718;2024-03-23T09:23:45;52.02;46.87;58.95;;
74234;Laerm;62591;55.764;37.718;2024-03-23T09:26:14;50.85;45.10;61.19;;
74234;Laerm;62591;55.764;37.718;2024-03-23T09:28:43;51.83;45.93;61.91;;
74234;Laerm;62591;55.764;37.718;2024-03-23T09:31:09;50.74;45.05;59.42;;
74234;Laerm;62591;55.764;37.718;2024-03-23T09:33:44;50.39;44.75;57.61;;
74234;Laerm;62591;55.764;37.718;2024-03-23T09:36:11;50.73;45.21;59.88;;
74234;Laerm;62591;55.764;37.718;2024-03-23T09:38:38;50.01;44.64;60.00;;
74234;Laerm;62591;55.764;37.718;2024-03-23T09:41:09;51.82;45.70;66.35;;
74234;Laerm;62591;55.764;37.718;2024-03-23T09:43:37;52.41;45.85;60.36;;
74234;Laerm;62591;55.764;37.718;2024-03-23T09:46:04;50.83;44.78;58.98;;
74234;Laerm;62591;55.764;37.718;2024-03-23T09:48:33;50.86;44.16;71.12;;
74234;Laerm;62591;55.764;37.718;2024-03-23T09:51:00;51.84;45.71;61.16;;
74234;Laerm;62591;55.764;37.718;2024-03-23T09:53:28;50.94;45.01;72.89;;
74234;Laerm;62591;55.764;37.718;2024-03-23T09:55:55;50.68;45.02;64.06;;
74234;Laerm;62591;55.764;37.718;2024-03-23T09:58:24;49.77;44.45;58.53;;
74234;Laerm;62591;55.764;37.718;2024-03-23T10:00:55;50.44;44.47;60.82;;
74234;Laerm;62591;55.764;37.718;2024-03-23T10:03:24;49.89;44.52;59.97;;
74234;Laerm;62591;55.764;37.718;2024-03-23T10:06:03;50.14;45.33;57.05;;
74234;Laerm;62591;55.764;37.718;2024-03-23T10:08:32;49.00;44.46;59.92;;
74234;Laerm;62591;55.764;37.718;2024-03-23T10:11:12;50.75;44.85;58.17;;
74234;Laerm;62591;55.764;37.718;2024-03-23T10:13:43;51.61;45.39;60.65;;
74234;Laerm;62591;55.764;37.718;2024-03-23T10:16:10;50.10;45.65;57.63;;
74234;Laerm;62591;55.764;37.718;2024-03-23T10:18:38;51.21;43.98;60.46;;
74234;Laerm;62591;55.764;37.718;2024-03-23T10:21:09;50.82;45.29;58.80;;
74234;Laerm;62591;55.764;37.718;2024-03-23T10:23:42;49.90;44.91;55.90;;
74234;Laerm;62591;55.764;37.718;2024-03-23T10:26:19;50.78;44.25;60.92;;
74234;Laerm;62591;55.764;37.718;2024-03-23T10:28:56;49.98;43.97;56.61;;
74234;Laerm;62591;55.764;37.718;2024-03-23T10:31:26;51.07;43.32;59.23;;
74234;Laerm;62591;55.764;37.718;2024-03-23T10:33:54;50.84;44.63;65.77;;
74234;Laerm;62591;55.764;37.718;2024-03-23T10:36:21;51.47;45.90;64.57;;
74234;Laerm;62591;55.764;37.718;2024-03-23T10:38:51;51.26;44.96;61.33;;
74234;Laerm;62591;55.764;37.718;2024-03-23T10:41:18;50.73;44.93;67.88;;
74234;Laerm;62591;55.764;37.718;2024-03-23T10:43:47;50.05;44.07;65.56;;
74234;Laerm;62591;55.764;37.718;2024-03-23T10:46:18;49.51;43.62;65.24;;
74234;Laerm;62591;55.764;37.718;2024-03-23T10:48:46;49.32;44.27;56.09;;
74234;Laerm;62591;55.764;37.718;2024-03-23T10:51:12;50.84;45.16;60.45;;
74234;Laerm;62591;55.764;37.718;2024-03-23T10:53:41;51.06;44.49;64.53;;
74234;Laerm;62591;55.764;37.718;2024-03-23T10:56:09;49.75;43.55;62.08;;
74234;Laerm;62591;55.764;37.718;2024-03-23T10:58:39;50.64;43.72;58.34;;
74234;Laerm;62591;55.764;37.718;2024-03-23T11:01:09;51.63;45.06;65.53;;
74234;Laerm;62591;55.764;37.718;2024-03-23T11:03:44;53.72;44.15;73.84;;
74234;Laerm;62591;55.764;37.718;2024-03-23T11:06:34;49.34;43.18;57.79;;
74234;Laerm;62591;55.764;37.718;2024-03-23T11:09:04;49.41;43.64;57.48;;
74234;Laerm;62591;55.764;37.718;2024-03-23T11:11:30;49.86;43.53;62.76;;
74234;Laerm;62591;55.764;37.718;2024-03-23T11:13:59;49.60;44.18;54.98;;
74234;Laerm;62591;55.764;37.718;2024-03-23T11:16:28;48.38;44.06;53.59;;
74234;Laerm;62591;55.764;37.718;2024-03-23T11:22:09;51.18;44.90;69.59;;
74234;Laerm;62591;55.764;37.718;2024-03-23T11:24:50;50.26;44.81;57.80;;
74234;Laerm;62591;55.764;37.718;2024-03-23T11:27:17;50.54;44.46;57.83;;
74234;Laerm;62591;55.764;37.718;2024-03-23T11:29:46;48.17;43.51;57.38;;
74234;Laerm;62591;55.764;37.718;2024-03-23T11:32:13;48.33;43.16;55.58;;
74234;Laerm;62591;55.764;37.718;2024-03-23T11:34:42;48.52;43.69;54.47;;
74234;Laerm;62591;55.764;37.718;2024-03-23T11:37:10;50.71;42.82;59.91;;
74234;Laerm;62591;55.764;37.718;2024-03-23T11:39:41;50.05;43.78;59.62;;
74234;Laerm;62591;55.764;37.718;2024-03-23T11:42:07;48.22;43.03;58.25;;
74234;Laerm;62591;55.764;37.718;2024-03-23T11:44:35;49.69;43.98;61.35;;
74234;Laerm;62591;55.764;37.718;2024-03-23T11:47:07;49.99;43.75;55.62;;
74234;Laerm;62591;55.764;37.718;2024-03-23T11:49:34;48.16;42.50;58.49;;
74234;Laerm;62591;55.764;37.718;2024-03-23T11:52:07;52.70;44.31;63.78;;
74234;Laerm;62591;55.764;37.718;2024-03-23T11:54:36;53.86;49.23;61.81;;
74234;Laerm;62591;55.764;37.718;2024-03-23T11:57:04;52.50;48.34;63.36;;
74234;Laerm;62591;55.764;37.718;2024-03-23T11:59:36;51.15;46.71;57.99;;
74234;Laerm;62591;55.764;37.718;2024-03-23T12:02:08;51.51;43.22;66.11;;
74234;Laerm;62591;55.764;37.718;2024-03-23T12:04:37;48.76;42.81;57.54;;
74234;Laerm;62591;55.764;37.718;2024-03-23T12:07:11;47.72;42.76;61.36;;
74234;Laerm;62591;55.764;37.718;2024-03-23T12:09:40;49.25;43.49;54.59;;
74234;Laerm;62591;55.764;37.718;2024-03-23T12:12:10;48.11;43.01;55.93;;
74234;Laerm;62591;55.764;37.718;2024-03-23T12:14:38;49.26;43.21;60.86;;
74234;Laerm;62591;55.764;37.718;2024-03-23T12:17:12;50.02;44.99;55.34;;
74234;Laerm;62591;55.764;37.718;2024-03-23T12:19:40;50.43;44.00;65.91;;
74234;Laerm;62591;55.764;37.718;2024-03-23T12:22:08;50.73;42.81;59.01;;
74234;Laerm;62591;55.764;37.718;2024-03-23T12:24:36;49.45;42.14;57.71;;
74234;Laerm;62591;55.764;37.718;2024-03-23T12:27:06;48.19;43.03;58.35;;
74234;Laerm;62591;55.764;37.718;2024-03-23T12:29:34;49.00;43.81;59.10;;
74234;Laerm;62591;55.764;37.718;2024-03-23T12:32:01;50.61;42.77;57.06;;
74234;Laerm;62591;55.764;37.718;2024-03-23T12:34:29;50.39;44.37;60.02;;
74234;Laerm;62591;55.764;37.718;2024-03-23T12:36:57;49.65;43.25;55.43;;
74234;Laerm;62591;55.764;37.718;2024-03-23T12:39:26;49.41;44.28;62.38;;
74234;Laerm;62591;55.764;37.718;2024-03-23T12:41:54;51.30;44.30;63.16;;
74234;Laerm;62591;55.764;37.718;2024-03-23T12:44:23;48.58;44.10;57.53;;
74234;Laerm;62591;55.764;37.718;2024-03-23T12:46:53;50.71;44.50;58.31;;
74234;Laerm;62591;55.764;37.718;2024-03-23T12:49:23;49.99;43.77;62.14;;
74234;Laerm;62591;55.764;37.718;2024-03-23T12:51:56;50.68;42.91;63.14;;
74234;Laerm;62591;55.764;37.718;2024-03-23T12:54:26;50.33;43.28;59.54;;
74234;Laerm;62591;55.764;37.718;2024-03-23T12:56:59;49.51;43.15;56.31;;
74234;Laerm;62591;55.764;37.718;2024-03-23T12:59:28;49.00;42.63;57.27;;
74234;Laerm;62591;55.764;37.718;2024-03-23T13:01:58;49.06;42.96;64.09;;
74234;Laerm;62591;55.764;37.718;2024-03-23T13:04:28;49.29;44.35;54.74;;
74234;Laerm;62591;55.764;37.718;2024-03-23T13:06:58;48.99;43.51;54.56;;
74234;Laerm;62591;55.764;37.718;2024-03-23T13:09:25;50.95;42.75;65.63;;
74234;Laerm;62591;55.764;37.718;2024-03-23T13:11:53;48.97;42.34;56.59;;
74234;Laerm;62591;55.764;37.718;2024-03-23T13:14:22;50.46;42.58;60.37;;
74234;Laerm;62591;55.764;37.718;2024-03-23T13:16:57;49.24;42.51;55.28;;
74234;Laerm;62591;55.764;37.718;2024-03-23T13:19:23;48.79;42.30;56.28;;
74234;Laerm;62591;55.764;37.718;2024-03-23T13:21:58;49.49;43.61;58.78;;
74234;Laerm;62591;55.764;37.718;2024-03-23T13:24:25;48.69;42.82;57.05;;
74234;Laerm;62591;55.764;37.718;2024-03-23T13:26:54;48.33;44.56;53.80;;
74234;Laerm;62591;55.764;37.718;2024-03-23T13:29:21;50.09;43.67;57.69;;
74234;Laerm;62591;55.764;37.718;2024-03-23T13:31:52;49.78;42.85;56.55;;
74234;Laerm;62591;55.764;37.718;2024-03-23T13:34:20;51.17;44.06;62.70;;
74234;Laerm;62591;55.764;37.718;2024-03-23T13:36:50;49.01;43.66;56.77;;
74234;Laerm;62591;55.764;37.718;2024-03-23T13:39:20;48.95;43.49;56.15;;
74234;Laerm;62591;55.764;37.718;2024-03-23T13:41:48;49.07;43.13;63.17;;
74234;Laerm;62591;55.764;37.718;2024-03-23T13:44:17;47.88;42.83;57.35;;
74234;Laerm;62591;55.764;37.718;2024-03-23T13:46:47;49.44;43.97;56.57;;
74234;Laerm;62591;55.764;37.718;2024-03-23T13:49:26;49.00;43.50;58.29;;
74234;Laerm;62591;55.764;37.718;2024-03-23T13:51:55;48.41;43.74;57.56;;
74234;Laerm;62591;55.764;37.718;2024-03-23T13:54:24;49.43;44.99;55.64;;
74234;Laerm;62591;55.764;37.718;2024-03-23T13:56:54;51.20;44.82;70.88;;
74234;Laerm;62591;55.764;37.718;2024-03-23T13:59:21;51.69;43.80;65.83;;
74234;Laerm;62591;55.764;37.718;2024-03-23T14:01:49;49.17;44.38;62.14;;
74234;Laerm;62591;55.764;37.718;2024-03-23T14:04:20;49.17;44.64;61.22;;
74234;Laerm;62591;55.764;37.718;2024-03-23T14:06:49;48.76;42.64;64.68;;
74234;Laerm;62591;55.764;37.718;2024-03-23T14:09:16;52.59;44.63;63.23;;
74234;Laerm;62591;55.764;37.718;2024-03-23T14:11:48;49.29;43.31;62.24;;
74234;Laerm;62591;55.764;37.718;2024-03-23T14:14:16;49.14;43.93;55.00;;
74234;Laerm;62591;55.764;37.718;2024-03-23T14:16:48;49.43;43.81;56.49;;
74234;Laerm;62591;55.764;37.718;2024-03-23T14:19:15;49.58;43.70;60.01;;
74234;Laerm;62591;55.764;37.718;2024-03-23T14:22:05;48.86;43.23;60.37;;
74234;Laerm;62591;55.764;37.718;2024-03-23T14:24:33;50.27;44.83;63.40;;
74234;Laerm;62591;55.764;37.718;2024-03-23T14:27:04;48.26;43.95;54.11;;
74234;Laerm;62591;55.764;37.718;2024-03-23T14:32:50;49.90;44.13;64.55;;
74234;Laerm;62591;55.764;37.718;2024-03-23T14:34:04;49.96;42.98;63.24;;
74234;Laerm;62591;55.764;37.718;2024-03-23T14:36:32;48.09;42.88;54.56;;
74234;Laerm;62591;55.764;37.718;2024-03-23T14:39:00;51.81;43.97;62.89;;
74234;Laerm;62591;55.764;37.718;2024-03-23T14:41:29;49.39;44.60;57.46;;
74234;Laerm;62591;55.764;37.718;2024-03-23T14:43:56;48.39;43.23;54.91;;